Time;durP1;ratioP1;P1;durP2;ratioP2;P2;SDS_P1;SDS_P2;PMS_P1;PMS_P2;Temp;Humidity;BMP_temperature;BMP_pressure;BME280_temperature;BME280_humidity;BME280_pressure;Samples;Min_cycle;Max_cycle;Signal;HPM_P1;HPM_P2
2023/03/28 00:00:43;;;;;;;3.00;1.20;;;;;;;-0.49;72.68;100359.25;110995;1212;97649;-59
2023/03/28 00:03:13;;;;;;;1.50;1.00;;;;;;;-0.56;72.82;100354.89;110744;1207;138386;-59
2023/03/28 00:05:43;;;;;;;2.10;0.50;;;;;;;-0.59;73.80;100371.04;110694;1222;97622;-59
2023/03/28 00:08:10;;;;;;;3.90;0.50;;;;;;;-0.59;74.11;100368.41;110533;1211;139178;-59
2023/03/28 00:10:36;;;;;;;0.20;0.20;;;;;;;-0.59;74.26;100362.43;110686;1212;98219;-60
2023/03/28 00:13:02;;;;;;;0.70;0.50;;;;;;;-0.60;74.96;100363.67;110594;1212;140571;-59
2023/03/28 00:15:27;;;;;;;2.90;1.00;;;;;;;-0.61;74.47;100357.17;110816;1206;97607;-59
2023/03/28 00:17:52;;;;;;;0.80;0.70;;;;;;;-0.62;74.38;100359.29;110745;1211;97715;-61
2023/03/28 00:20:18;;;;;;;1.20;0.90;;;;;;;-0.62;74.20;100353.50;110667;1212;139810;-61
2023/03/28 00:22:44;;;;;;;3.80;1.80;;;;;;;-0.64;74.15;100351.04;110735;1212;109343;-62
2023/03/28 00:25:10;;;;;;;3.70;1.70;;;;;;;-0.66;74.21;100353.86;110530;1206;143586;-61
2023/03/28 00:27:36;;;;;;;3.40;1.80;;;;;;;-0.65;74.16;100355.43;110837;1211;97703;-61
2023/03/28 00:30:03;;;;;;;3.10;1.80;;;;;;;-0.63;74.30;100356.14;110824;1212;98908;-61
2023/03/28 00:32:29;;;;;;;3.50;2.20;;;;;;;-0.60;74.80;100360.33;110676;1212;138599;-61
2023/03/28 00:34:55;;;;;;;3.10;1.90;;;;;;;-0.60;74.75;100354.54;110607;1212;97729;-61
2023/03/28 00:37:21;;;;;;;2.10;1.30;;;;;;;-0.59;75.03;100351.20;110717;1211;140823;-61
2023/03/28 00:39:50;;;;;;;2.40;1.00;;;;;;;-0.59;75.05;100354.54;110847;1212;99811;-61
2023/03/28 00:42:17;;;;;;;1.20;0.80;;;;;;;-0.59;75.19;100353.66;110681;1212;107764;-60
2023/03/28 00:44:45;;;;;;;0.80;0.70;;;;;;;-0.59;75.13;100347.52;110558;1211;139111;-62
2023/03/28 00:47:25;;;;;;;2.70;0.70;;;;;;;-0.60;75.28;100349.10;110704;1222;98119;-60
2023/03/28 00:49:56;;;;;;;0.90;0.90;;;;;;;-0.61;75.65;100348.92;110590;1206;140418;-60
2023/03/28 00:52:24;;;;;;;;;;;;;;;-0.64;75.61;100349.81;111012;1207;99886;-61
2023/03/28 00:54:52;;;;;;;0.40;0.30;;;;;;;-0.67;75.88;100352.63;110918;1212;107964;-60
2023/03/28 00:57:18;;;;;;;1.20;0.50;;;;;;;-0.67;75.84;100344.39;110824;1206;140553;-59
2023/03/28 00:59:44;;;;;;;3.20;0.60;;;;;;;-0.67;75.90;100349.47;111009;1212;97674;-60
2023/03/28 01:02:10;;;;;;;0.70;0.50;;;;;;;-0.66;76.13;100352.80;110863;1207;139901;-59
2023/03/28 01:04:48;;;;;;;4.30;0.70;;;;;;;-0.65;76.13;100351.58;110813;1206;107930;-59
2023/03/28 01:07:15;;;;;;;3.80;1.00;;;;;;;-0.62;76.47;100352.61;110756;1210;139311;-60
2023/03/28 01:09:42;;;;;;;1.10;0.60;;;;;;;-0.62;76.39;100353.33;110934;1208;97715;-60
2023/03/28 01:12:08;;;;;;;1.70;0.40;;;;;;;-0.61;76.69;100361.73;110959;1209;97662;-60
2023/03/28 01:14:36;;;;;;;1.50;0.80;;;;;;;-0.61;77.05;100352.27;110892;1212;139057;-60
2023/03/28 01:17:02;;;;;;;2.50;1.00;;;;;;;-0.60;77.14;100356.83;110831;1206;97680;-60
2023/03/28 01:20:12;;;;;;;3.60;1.10;;;;;;;-0.59;77.15;100354.19;110795;1209;138779;-60
2023/03/28 01:23:08;;;;;;;1.60;0.90;;;;;;;-0.54;77.69;100349.26;110632;1225;111714;-60
2023/03/28 01:25:49;;;;;;;1.20;1.00;;;;;;;-0.51;77.72;100354.16;110644;1211;139324;-60
2023/03/28 01:28:55;;;;;;;1.20;0.90;;;;;;;-0.50;78.00;100356.45;110742;1209;107914;-62
2023/03/28 01:31:39;;;;;;;1.70;1.10;;;;;;;-0.49;78.14;100355.04;110628;1206;139239;-61
2023/03/28 01:34:36;;;;;;;2.40;1.30;;;;;;;-0.50;78.48;100352.92;110724;1206;99342;-60
2023/03/28 01:37:21;;;;;;;2.60;1.10;;;;;;;-0.51;79.12;100349.95;110577;1206;139886;-60
2023/03/28 01:40:06;;;;;;;2.40;1.30;;;;;;;-0.54;78.86;100348.73;110643;1212;99938;-60
2023/03/28 01:42:56;;;;;;;2.00;1.60;;;;;;;-0.56;79.09;100348.04;110687;1209;108240;-61
2023/03/28 01:45:41;;;;;;;1.80;1.40;;;;;;;-0.57;79.10;100346.29;110696;1206;97669;-60
2023/03/28 01:48:38;;;;;;;3.10;1.20;;;;;;;-0.59;78.99;100346.64;110745;1212;97902;-60
2023/03/28 01:51:09;;;;;;;4.10;1.60;;;;;;;-0.62;79.30;100341.39;110489;1212;138274;-60
2023/03/28 01:53:53;;;;;;;;;;;;;;;-0.64;79.12;100343.15;110764;1212;101169;-60
2023/03/28 01:56:31;;;;;;;2.50;1.70;;;;;;;-0.67;79.00;100343.33;110596;1212;126855;-59
2023/03/28 01:59:14;;;;;;;1.70;1.40;;;;;;;-0.69;79.00;100347.90;110843;1206;97689;-59
2023/03/28 02:01:52;;;;;;;3.00;1.70;;;;;;;-0.68;79.24;100353.86;110648;1212;139878;-60
2023/03/28 02:04:19;;;;;;;2.40;1.70;;;;;;;-0.65;79.37;100360.35;110799;1212;111085;-59
2023/03/28 02:06:48;;;;;;;5.90;1.80;;;;;;;-0.62;79.06;100359.81;110845;1209;97662;-59
2023/03/28 02:09:17;;;;;;;2.00;1.30;;;;;;;-0.59;79.18;100361.56;110552;1210;138154;-60
2023/03/28 02:11:44;;;;;;;1.10;0.90;;;;;;;-0.56;79.30;100363.13;110699;1208;97673;-60
2023/03/28 02:14:16;;;;;;;1.50;1.40;;;;;;;-0.54;79.35;100367.86;110591;1206;139644;-60
2023/03/28 02:16:44;;;;;;;1.70;1.60;;;;;;;-0.52;79.62;100367.85;110752;1211;111080;-60
2023/03/28 02:19:12;;;;;;;2.70;1.70;;;;;;;-0.49;79.81;100369.08;110690;1210;140304;-60
2023/03/28 02:21:47;;;;;;;2.00;1.40;;;;;;;-0.49;79.65;100363.64;110812;1212;108573;-60
2023/03/28 02:24:13;;;;;;;4.00;2.10;;;;;;;-0.49;79.63;100369.08;110720;1206;99276;-60
2023/03/28 02:26:39;;;;;;;2.00;1.30;;;;;;;-0.47;79.78;100362.40;110578;1206;140826;-60
2023/03/28 02:29:07;;;;;;;4.40;2.20;;;;;;;-0.46;79.72;100364.85;110832;1206;96536;-60
2023/03/28 02:31:33;;;;;;;3.00;2.00;;;;;;;-0.45;79.66;100361.52;110728;1206;139952;-60
2023/03/28 02:34:00;;;;;;;5.10;1.90;;;;;;;-0.44;79.80;100368.89;110769;1212;99082;-60
2023/03/28 02:36:41;;;;;;;2.00;1.50;;;;;;;-0.44;79.81;100364.32;110755;1206;96902;-60
2023/03/28 02:39:27;;;;;;;2.90;1.80;;;;;;;-0.44;80.04;100371.88;110594;1210;138862;-60
2023/03/28 02:42:23;;;;;;;4.80;1.70;;;;;;;-0.43;80.02;100365.72;110753;1210;100693;-60
2023/03/28 02:45:15;;;;;;;7.00;2.20;;;;;;;-0.44;80.00;100364.50;110682;1206;139542;-60
2023/03/28 02:48:07;;;;;;;3.00;2.10;;;;;;;-0.47;80.10;100359.95;110620;1206;97686;-60
2023/03/28 02:50:48;;;;;;;2.30;2.00;;;;;;;-0.52;80.16;100361.02;110603;1210;138274;-59
2023/03/28 02:53:26;;;;;;;2.60;2.10;;;;;;;-0.55;80.17;100359.96;110907;1212;109931;-60
2023/03/28 02:56:03;;;;;;;6.60;2.80;;;;;;;-0.58;79.99;100369.45;110767;1206;140752;-60
2023/03/28 02:58:53;;;;;;;2.70;1.50;;;;;;;-0.59;80.12;100377.88;110863;1206;107818;-59
2023/03/28 03:01:20;;;;;;;3.30;2.50;;;;;;;-0.59;80.40;100380.69;110780;1211;140401;-60
2023/03/28 03:03:47;;;;;;;2.60;2.20;;;;;;;-0.58;80.79;100388.94;110977;1210;97635;-60
2023/03/28 03:06:12;;;;;;;4.00;2.40;;;;;;;-0.58;80.84;100386.83;110921;1206;97584;-60
2023/03/28 03:08:37;;;;;;;2.70;2.10;;;;;;;-0.57;80.86;100390.34;110858;1206;140118;-60
2023/03/28 03:11:03;;;;;;;2.80;2.30;;;;;;;-0.58;80.91;100397.35;110927;1212;97643;-60
2023/03/28 03:13:28;;;;;;;2.40;1.90;;;;;;;-0.59;81.07;100395.78;110796;1206;138857;-60
2023/03/28 03:15:54;;;;;;;3.90;2.00;;;;;;;-0.60;81.20;100403.67;110928;1206;100099;-61
2023/03/28 03:18:20;;;;;;;2.60;1.80;;;;;;;-0.63;81.05;100397.71;110903;1209;98180;-58
2023/03/28 03:20:45;;;;;;;4.00;1.70;;;;;;;-0.68;81.16;100412.45;110933;1206;140218;-59
2023/03/28 03:23:12;;;;;;;2.80;2.10;;;;;;;-0.70;81.08;100408.61;110796;1212;97780;-61
2023/03/28 03:25:38;;;;;;;3.70;1.90;;;;;;;-0.71;81.05;100414.40;110686;1212;139563;-59
2023/03/28 03:28:04;;;;;;;2.40;1.20;;;;;;;-0.71;81.18;100411.95;111045;1212;97690;-60
2023/03/28 03:30:30;;;;;;;1.90;1.50;;;;;;;-0.70;81.03;100420.36;110784;1206;98547;-61
2023/03/28 03:32:56;;;;;;;1.80;1.60;;;;;;;-0.69;80.77;100421.06;110575;1206;140083;-59
2023/03/28 03:35:21;;;;;;;3.30;1.80;;;;;;;-0.69;80.96;100428.08;110721;1212;97694;-59
2023/03/28 03:37:47;;;;;;;2.50;1.30;;;;;;;-0.69;80.79;100430.89;110703;1206;140143;-60
2023/03/28 03:40:12;;;;;;;2.50;1.30;;;;;;;-0.70;80.97;100435.98;110769;1212;97671;-59
2023/03/28 03:42:38;;;;;;;1.50;1.00;;;;;;;-0.70;81.00;100440.02;110713;1209;98112;-59
2023/03/28 03:45:04;;;;;;;1.70;1.40;;;;;;;-0.71;81.00;100446.86;110664;1206;139489;-59
2023/03/28 03:47:30;;;;;;;1.70;1.40;;;;;;;-0.73;80.70;100443.16;110592;1206;99779;-59
2023/03/28 03:49:56;;;;;;;2.20;1.10;;;;;;;-0.73;80.94;100450.55;110619;1212;138733;-59
2023/03/28 03:52:21;;;;;;;2.40;1.70;;;;;;;-0.74;80.98;100455.81;110803;1206;96469;-60
2023/03/28 03:54:46;;;;;;;1.80;1.10;;;;;;;-0.74;80.99;100466.50;110697;1212;97659;-60
2023/03/28 03:57:11;;;;;;;1.70;1.30;;;;;;;-0.76;81.00;100461.24;110690;1211;140456;-59
2023/03/28 03:59:37;;;;;;;2.20;1.20;;;;;;;-0.76;80.63;100470.37;110678;1210;111555;-59
2023/03/28 04:02:02;;;;;;;6.80;1.40;;;;;;;-0.74;80.83;100475.63;110587;1212;138403;-59
2023/03/28 04:04:27;;;;;;;4.30;1.80;;;;;;;-0.73;80.94;100478.09;110705;1206;97714;-60
2023/03/28 04:06:56;;;;;;;4.00;1.50;;;;;;;-0.71;80.85;100480.02;110691;1212;97591;-60
2023/03/28 04:09:25;;;;;;;1.30;1.10;;;;;;;-0.70;80.76;100491.60;110673;1209;111678;-60
2023/03/28 04:11:51;;;;;;;3.20;1.40;;;;;;;-0.70;80.63;100490.02;110785;1212;99895;-60
2023/03/28 04:14:16;;;;;;;3.00;1.20;;;;;;;-0.70;80.67;100490.55;110513;1206;138305;-62
2023/03/28 04:16:41;;;;;;;3.30;1.50;;;;;;;-0.71;80.49;100501.06;110741;1212;97687;-61
2023/03/28 04:19:07;;;;;;;3.50;1.30;;;;;;;-0.70;80.46;100507.21;110530;1211;140523;-60
2023/03/28 04:21:34;;;;;;;3.00;1.30;;;;;;;-0.71;80.53;100507.56;110710;1206;98848;-59
2023/03/28 04:24:00;;;;;;;4.00;1.30;;;;;;;-0.73;80.37;100520.37;110736;1220;97704;-59
2023/03/28 04:26:27;;;;;;;2.30;1.20;;;;;;;-0.76;80.41;100523.35;110495;1206;139782;-59
2023/03/28 04:28:54;;;;;;;3.50;1.20;;;;;;;-0.78;80.39;100523.34;110811;1206;97697;-61
2023/03/28 04:31:21;;;;;;;2.00;1.50;;;;;;;-0.81;80.30;100533.34;110560;1206;139587;-59
2023/03/28 04:33:47;;;;;;;3.10;1.50;;;;;;;-0.83;80.25;100537.90;110771;1212;98919;-59
2023/03/28 04:36:15;;;;;;;2.80;1.20;;;;;;;-0.85;80.32;100543.86;110667;1212;97625;-59
2023/03/28 04:38:44;;;;;;;1.40;1.20;;;;;;;-0.89;80.12;100540.35;110577;1212;140015;-59
2023/03/28 04:41:12;;;;;;;1.80;1.20;;;;;;;-0.93;80.03;100548.06;110688;1209;99785;-58
2023/03/28 04:43:38;;;;;;;2.50;1.30;;;;;;;-0.96;80.09;100548.41;110819;1210;138963;-59
2023/03/28 04:46:04;;;;;;;1.70;1.10;;;;;;;-0.99;80.02;100556.12;110708;1212;96489;-60
2023/03/28 04:48:30;;;;;;;2.70;1.40;;;;;;;-1.02;80.18;100562.95;110770;1212;97672;-59
2023/03/28 04:50:55;;;;;;;3.00;1.20;;;;;;;-1.04;80.03;100568.56;110594;1206;139154;-62
2023/03/28 04:53:21;;;;;;;4.30;1.70;;;;;;;-1.06;80.04;100571.36;110980;1208;97584;-61
2023/03/28 04:55:51;;;;;;;2.50;1.70;;;;;;;-1.08;80.07;100575.04;110878;1207;139003;-60
2023/03/28 04:58:18;;;;;;;2.20;1.40;;;;;;;-1.10;79.91;100578.71;110927;1209;112166;-61
2023/03/28 05:00:44;;;;;;;3.60;1.90;;;;;;;-1.12;80.14;100586.95;110875;1206;98799;-61
2023/03/28 05:03:12;;;;;;;2.80;1.40;;;;;;;-1.14;79.90;100590.27;110808;1212;138923;-62
2023/03/28 05:05:38;;;;;;;4.50;1.70;;;;;;;-1.16;79.97;100595.88;110838;1210;97588;-60
2023/03/28 05:08:03;;;;;;;2.90;1.90;;;;;;;-1.17;80.28;100602.54;110964;1208;139060;-61
2023/03/28 05:10:28;;;;;;;2.70;1.50;;;;;;;-1.17;80.24;100604.64;110946;1209;99202;-60
2023/03/28 05:12:53;;;;;;;3.80;1.30;;;;;;;-1.18;79.73;100609.02;111023;1206;97767;-61
2023/03/28 05:15:19;;;;;;;2.80;1.20;;;;;;;-1.17;79.94;100618.49;110937;1209;138912;-61
2023/03/28 05:17:44;;;;;;;3.10;1.80;;;;;;;-1.17;79.89;100619.73;110930;1206;97601;-60
2023/03/28 05:20:10;;;;;;;3.40;2.00;;;;;;;-1.18;80.09;100630.05;110848;1206;138683;-61
2023/03/28 05:22:37;;;;;;;2.10;1.00;;;;;;;-1.17;79.94;100626.91;110761;1210;97764;-60
2023/03/28 05:25:07;;;;;;;5.00;1.40;;;;;;;-1.18;80.01;100634.09;110724;1209;140262;-60
2023/03/28 05:27:33;;;;;;;4.70;1.60;;;;;;;-1.15;80.13;100632.88;110941;1206;112612;-59
2023/03/28 05:29:59;;;;;;;4.00;1.40;;;;;;;-1.10;80.27;100637.63;110918;1210;97642;-60
2023/03/28 05:32:24;;;;;;;3.50;1.50;;;;;;;-1.04;80.33;100643.97;110554;1211;139312;-60
2023/03/28 05:34:50;;;;;;;3.70;1.50;;;;;;;-0.98;80.03;100640.83;110685;1210;97637;-60
2023/03/28 05:37:15;;;;;;;6.40;2.10;;;;;;;-0.91;80.02;100649.98;110576;1210;140169;-59
2023/03/28 05:39:40;;;;;;;2.30;1.20;;;;;;;-0.86;80.34;100646.30;110817;1210;97693;-59
2023/03/28 05:42:07;;;;;;;1.20;0.90;;;;;;;-0.82;80.22;100649.65;110765;1206;97669;-60
2023/03/28 05:44:32;;;;;;;5.10;1.90;;;;;;;-0.78;80.45;100654.22;110620;1208;140270;-60
2023/03/28 05:46:58;;;;;;;3.90;1.40;;;;;;;-0.76;80.18;100659.84;110819;1211;98071;-60
2023/03/28 05:49:23;;;;;;;1.50;1.10;;;;;;;-0.74;80.13;100668.62;110623;1206;138599;-59
2023/03/28 05:51:48;;;;;;;2.60;1.30;;;;;;;-0.72;80.38;100664.95;110524;1206;97678;-60
2023/03/28 05:54:14;;;;;;;3.40;1.60;;;;;;;-0.71;80.31;100669.33;110888;1206;97835;-60
2023/03/28 05:56:39;;;;;;;2.90;1.50;;;;;;;-0.69;80.14;100674.25;110939;1209;138669;-60
2023/03/28 05:59:04;;;;;;;3.80;1.40;;;;;;;-0.65;80.36;100682.68;111008;1222;97680;-60
2023/03/28 06:01:30;;;;;;;4.70;2.00;;;;;;;-0.62;80.17;100681.11;110688;1206;138478;-60
2023/03/28 06:03:56;;;;;;;7.90;2.20;;;;;;;-0.62;80.13;100687.60;110944;1209;97674;-60
2023/03/28 06:06:21;;;;;;;2.70;1.70;;;;;;;-0.61;80.03;100688.13;110796;1219;107833;-60
2023/03/28 06:08:47;;;;;;;2.50;1.50;;;;;;;-0.59;80.05;100694.11;110710;1206;138955;-59
2023/03/28 06:11:12;;;;;;;5.20;2.00;;;;;;;-0.58;79.94;100699.36;110881;1206;98107;-60
2023/03/28 06:13:37;;;;;;;3.90;2.10;;;;;;;-0.58;80.09;100701.30;110791;1206;139888;-60
2023/03/28 06:16:03;;;;;;;2.90;1.90;;;;;;;-0.57;80.02;100700.77;110958;1206;97699;-61
2023/03/28 06:18:28;;;;;;;4.00;2.20;;;;;;;-0.58;79.87;100710.08;110719;1206;97683;-61
2023/03/28 06:20:53;;;;;;;2.20;1.30;;;;;;;-0.58;79.90;100707.98;110906;1209;138241;-61
2023/03/28 06:23:19;;;;;;;4.30;2.00;;;;;;;-0.61;79.99;100716.04;110932;1206;97706;-60
2023/03/28 06:25:45;;;;;;;6.60;2.70;;;;;;;-0.62;80.01;100714.45;110778;1206;138376;-61
2023/03/28 06:28:10;;;;;;;6.50;3.50;;;;;;;-0.60;80.00;100719.90;110936;1211;97613;-60
2023/03/28 06:30:37;;;;;;;3.60;2.40;;;;;;;-0.58;80.02;100720.26;111032;1209;99036;-62
2023/03/28 06:33:02;;;;;;;5.80;2.10;;;;;;;-0.54;79.92;100724.13;110828;1210;138111;-59
2023/03/28 06:35:28;;;;;;;4.30;2.60;;;;;;;-0.52;79.88;100729.06;110774;1206;97639;-59
2023/03/28 06:37:53;;;;;;;5.20;2.30;;;;;;;-0.45;79.81;100731.70;110919;1209;138687;-60
2023/03/28 06:40:18;;;;;;;8.30;3.30;;;;;;;-0.39;80.02;100737.52;110930;1206;97553;-59
2023/03/28 06:42:44;;;;;;;4.80;2.70;;;;;;;-0.29;80.06;100747.72;110939;1212;97873;-59
2023/03/28 06:45:09;;;;;;;5.60;3.10;;;;;;;-0.23;79.91;100752.30;110757;1209;139035;-60
2023/03/28 06:47:35;;;;;;;3.70;2.80;;;;;;;-0.18;79.97;100757.40;110815;1209;97715;-60
2023/03/28 06:50:00;;;;;;;7.20;3.60;;;;;;;-0.16;79.95;100764.09;110831;1209;138606;-60
2023/03/28 06:52:25;;;;;;;4.00;2.70;;;;;;;-0.12;79.83;100767.08;110927;1208;97680;-60
2023/03/28 06:54:50;;;;;;;5.00;3.30;;;;;;;-0.12;79.72;100762.51;111031;1209;97591;-60
2023/03/28 06:57:16;;;;;;;7.80;3.00;;;;;;;-0.09;79.73;100766.55;110883;1209;138544;-61
2023/03/28 06:59:41;;;;;;;5.50;3.20;;;;;;;-0.04;79.79;100772.36;111048;1213;97844;-60
2023/03/28 07:02:09;;;;;;;5.70;3.00;;;;;;;0.05;79.84;100773.23;110722;1212;138432;-60
2023/03/28 07:04:35;;;;;;;4.50;2.90;;;;;;;0.13;79.65;100782.89;110931;1206;111767;-60
2023/03/28 07:07:00;;;;;;;3.10;2.20;;;;;;;0.13;79.42;100777.61;110816;1206;139404;-60
2023/03/28 07:09:26;;;;;;;3.00;2.40;;;;;;;0.14;79.36;100790.45;111027;1206;97676;-60
2023/03/28 07:11:51;;;;;;;3.40;2.10;;;;;;;0.16;79.31;100795.55;110968;1208;96443;-60
2023/03/28 07:14:16;;;;;;;4.00;2.30;;;;;;;0.18;79.20;100803.63;110806;1209;139874;-61
2023/03/28 07:16:41;;;;;;;4.40;2.30;;;;;;;0.19;79.07;100806.09;110942;1206;106802;-60
2023/03/28 07:19:07;;;;;;;4.50;2.30;;;;;;;0.22;78.91;100815.76;110858;1206;230673;-60
2023/03/28 07:21:33;;;;;;;4.90;2.50;;;;;;;0.21;78.82;100821.38;111022;1211;97684;-60
2023/03/28 07:23:58;;;;;;;4.10;2.10;;;;;;;0.21;78.67;100819.27;110978;1206;98144;-61
2023/03/28 07:26:23;;;;;;;18.40;2.80;;;;;;;0.24;78.65;100824.20;110935;1206;139505;-60
2023/03/28 07:28:49;;;;;;;5.70;2.40;;;;;;;0.26;78.65;100826.13;111056;1211;97693;-61
2023/03/28 07:31:15;;;;;;;5.80;2.40;;;;;;;0.33;78.43;100826.32;110705;1206;141110;-61
2023/03/28 07:33:41;;;;;;;10.00;2.70;;;;;;;0.33;78.34;100820.17;111008;1211;98096;-60
2023/03/28 07:36:15;;;;;;;3.50;2.30;;;;;;;0.39;78.42;100820.88;110886;1206;97574;-61
2023/03/28 07:38:40;;;;;;;7.00;2.60;;;;;;;0.49;78.33;100824.40;110783;1209;138582;-60
2023/03/28 07:41:06;;;;;;;2.80;2.20;;;;;;;0.48;78.26;100824.92;110945;1205;97590;-62
2023/03/28 07:43:32;;;;;;;5.40;2.90;;;;;;;0.39;78.10;100822.98;110857;1206;140042;-61
2023/03/28 07:45:59;;;;;;;5.40;2.30;;;;;;;0.30;78.06;100827.36;110940;1210;97744;-60
2023/03/28 07:48:25;;;;;;;3.50;2.30;;;;;;;0.27;78.00;100836.50;110997;1208;97600;-61
2023/03/28 07:50:50;;;;;;;4.20;2.60;;;;;;;0.23;77.92;100827.18;110825;1209;139980;-61
2023/03/28 07:53:15;;;;;;;3.80;2.30;;;;;;;0.22;77.90;100828.41;110919;1211;97716;-61
2023/03/28 07:55:42;;;;;;;6.70;2.70;;;;;;;0.22;77.75;100836.85;110709;1209;138377;-62
2023/03/28 07:58:08;;;;;;;4.70;2.50;;;;;;;0.17;77.65;100842.98;110501;1209;96453;-61
2023/03/28 08:00:34;;;;;;;6.00;2.20;;;;;;;0.13;77.60;100846.85;110737;1209;98272;-61
2023/03/28 08:02:59;;;;;;;3.70;2.20;;;;;;;0.09;77.73;100847.72;110610;1209;139118;-61
2023/03/28 08:05:25;;;;;;;3.90;2.70;;;;;;;0.05;77.63;100857.73;110725;1205;97677;-61
2023/03/28 08:07:51;;;;;;;5.70;2.40;;;;;;;-0.04;77.67;100867.73;110806;1206;138947;-61
2023/03/28 08:10:16;;;;;;;3.50;2.50;;;;;;;-0.17;77.76;100872.08;110890;1210;97708;-61
2023/03/28 08:12:42;;;;;;;3.50;2.50;;;;;;;-0.30;77.99;100876.77;110775;1206;97600;-63
2023/03/28 08:15:09;;;;;;;4.20;2.30;;;;;;;-0.42;77.92;100878.81;110807;1211;138883;-60
2023/03/28 08:17:34;;;;;;;8.00;2.10;;;;;;;-0.51;78.28;100883.86;111018;1206;111761;-60
2023/03/28 08:19:59;;;;;;;3.60;1.70;;;;;;;-0.56;78.55;100876.11;110674;1211;138298;-61
2023/03/28 08:22:25;;;;;;;3.00;1.50;;;;;;;-0.58;78.70;100877.52;110877;1211;97584;-61
2023/03/28 08:24:50;;;;;;;3.70;1.20;;;;;;;-0.61;78.79;100891.88;110857;1211;97695;-60
2023/03/28 08:27:16;;;;;;;4.70;2.10;;;;;;;-0.72;79.03;100913.05;110718;1206;139771;-61
2023/03/28 08:29:41;;;;;;;2.90;1.20;;;;;;;-0.88;79.27;100940.46;110782;1210;108051;-62
2023/03/28 08:32:06;;;;;;;5.90;1.60;;;;;;;-1.11;79.88;100936.95;110738;1206;140300;-60
2023/03/28 08:34:32;;;;;;;3.40;1.40;;;;;;;-1.28;80.18;100944.69;110839;1211;97582;-62
2023/03/28 08:36:58;;;;;;;2.20;1.20;;;;;;;-1.38;80.64;100946.87;110735;1211;138908;-59
2023/03/28 08:39:24;;;;;;;4.50;1.50;;;;;;;-1.47;80.47;100943.45;111219;1208;97649;-59
2023/03/28 08:42:27;;;;;;;1.80;0.70;;;;;;;-1.41;80.75;100927.21;111110;1211;97638;-61
2023/03/28 08:45:25;;;;;;;3.00;1.60;;;;;;;-1.23;80.87;100937.02;110754;1206;139859;-60
2023/03/28 08:48:16;;;;;;;3.30;1.50;;;;;;;-1.08;80.60;100939.95;110958;1206;99972;-60
2023/03/28 08:50:46;;;;;;;2.20;1.40;;;;;;;-1.12;80.68;100944.13;110775;1209;139413;-60
2023/03/28 08:53:19;;;;;;;8.80;1.40;;;;;;;-1.19;80.68;100951.60;110858;1211;100289;-60
2023/03/28 08:55:47;;;;;;;2.20;1.30;;;;;;;-1.19;80.87;100964.93;111159;1209;139106;-60
2023/03/28 08:58:19;;;;;;;3.80;1.10;;;;;;;-1.18;80.66;100965.64;110792;1206;111788;-59
2023/03/28 09:00:46;;;;;;;2.40;1.70;;;;;;;-1.13;80.88;100974.45;110829;1209;99837;-61
2023/03/28 09:03:13;;;;;;;4.50;1.30;;;;;;;-1.10;80.63;100969.23;110718;1206;140484;-61
2023/03/28 09:06:02;;;;;;;3.70;1.30;;;;;;;-1.02;80.68;100977.38;110763;1206;97693;-62
2023/03/28 09:08:35;;;;;;;3.10;1.30;;;;;;;-0.96;80.70;100984.77;110715;1211;138235;-64
2023/03/28 09:11:10;;;;;;;2.50;1.10;;;;;;;-0.92;80.50;100988.84;110884;1211;110810;-61
2023/03/28 09:13:51;;;;;;;2.60;1.40;;;;;;;-0.76;80.48;100986.01;110815;1205;140974;-61
2023/03/28 09:16:40;;;;;;;3.40;2.20;;;;;;;-0.53;80.62;100991.09;110887;1205;108093;-60
2023/03/28 09:19:33;;;;;;;5.40;1.20;;;;;;;-0.33;80.48;100982.98;110770;1211;139717;-59
2023/03/28 09:22:19;;;;;;;3.30;1.20;;;;;;;-0.10;80.17;100983.83;111042;1210;97682;-60
2023/03/28 09:24:59;;;;;;;2.00;1.00;;;;;;;0.11;79.55;100992.85;110870;1206;111816;-60
2023/03/28 09:27:32;;;;;;;6.50;2.20;;;;;;;0.24;78.45;100984.48;110945;1211;100271;-60
2023/03/28 09:30:15;;;;;;;6.40;2.90;;;;;;;0.44;77.86;100971.89;110839;1206;108090;-60
2023/03/28 09:32:41;;;;;;;6.20;1.50;;;;;;;0.67;77.66;100988.30;110690;1206;139900;-60
2023/03/28 09:35:19;;;;;;;3.10;2.20;;;;;;;0.72;76.84;100978.98;110839;1206;96488;-61
2023/03/28 09:37:50;;;;;;;2.70;1.40;;;;;;;0.73;76.84;100987.43;110730;1206;137982;-60
2023/03/28 09:40:21;;;;;;;2.30;1.10;;;;;;;0.63;75.75;100992.33;110888;1206;99617;-60
2023/03/28 09:43:09;;;;;;;3.10;1.10;;;;;;;0.44;75.49;100998.08;110797;1206;108007;-60
2023/03/28 09:45:35;;;;;;;3.30;1.40;;;;;;;0.23;74.66;101005.73;110813;1206;97620;-60
2023/03/28 09:48:02;;;;;;;4.10;1.40;;;;;;;0.14;74.42;101010.43;110904;1206;97708;-61
2023/03/28 09:50:28;;;;;;;5.80;1.30;;;;;;;0.10;74.48;101007.08;110677;1209;138900;-61
2023/03/28 09:52:55;;;;;;;3.50;1.10;;;;;;;0.13;74.55;101007.09;111173;1206;97367;-60
2023/03/28 09:55:23;;;;;;;4.80;1.20;;;;;;;0.17;74.65;101007.46;110612;1206;138627;-60
2023/03/28 09:58:09;;;;;;;2.90;1.50;;;;;;;0.27;74.91;101005.23;110850;1206;97578;-60
2023/03/28 10:00:41;;;;;;;2.40;1.00;;;;;;;0.42;74.48;101011.95;110781;1206;112593;-61
2023/03/28 10:03:39;;;;;;;3.80;1.40;;;;;;;0.46;74.00;101005.48;110842;1211;140604;-60
2023/03/28 10:06:23;;;;;;;2.10;1.20;;;;;;;0.56;74.07;101007.44;110810;1210;107987;-60
2023/03/28 10:08:48;;;;;;;2.60;1.20;;;;;;;0.58;73.69;101019.23;110636;1211;139739;-60
2023/03/28 10:11:16;;;;;;;3.00;1.50;;;;;;;0.57;73.05;101013.23;110753;1206;97569;-60
2023/03/28 10:13:49;;;;;;;2.80;1.40;;;;;;;0.58;72.94;101019.92;110700;1211;139623;-60
2023/03/28 10:16:31;;;;;;;3.30;1.40;;;;;;;0.75;73.10;101020.85;110890;1209;99581;-60
2023/03/28 10:18:56;;;;;;;2.30;1.50;;;;;;;1.03;73.31;101018.80;110759;1209;108254;-62
2023/03/28 10:21:30;;;;;;;2.70;1.30;;;;;;;1.29;73.08;101020.59;110785;1205;139642;-60
2023/03/28 10:24:02;;;;;;;3.40;1.30;;;;;;;1.38;72.65;101036.61;110941;1206;97723;-61
2023/03/28 10:26:28;;;;;;;10.80;1.20;;;;;;;1.21;71.52;101051.39;110602;1211;139770;-61
2023/03/28 10:28:58;;;;;;;4.40;0.80;;;;;;;0.81;70.98;101058.86;110734;1206;97676;-62
2023/03/28 10:31:30;;;;;;;2.20;1.10;;;;;;;0.37;71.21;101053.77;110850;1209;138739;-62
2023/03/28 10:33:58;;;;;;;3.10;1.60;;;;;;;0.04;71.48;101052.20;111116;1211;97595;-63
2023/03/28 10:36:39;;;;;;;2.30;1.20;;;;;;;-0.03;71.97;101052.70;113263;1206;95760;-63
2023/03/28 10:39:27;;;;;;;2.70;1.30;;;;;;;0.19;72.33;101054.39;111535;1206;140598;-62
2023/03/28 10:41:54;;;;;;;1.70;1.10;;;;;;;0.44;72.30;101051.70;110804;1206;98803;-60
2023/03/28 10:44:31;;;;;;;10.80;1.60;;;;;;;0.65;72.38;101048.44;110626;1206;138932;-62
2023/03/28 10:47:00;;;;;;;2.50;0.90;;;;;;;0.82;72.30;101057.46;110805;1211;97779;-59
2023/03/28 10:49:29;;;;;;;1.40;1.00;;;;;;;0.72;71.16;101066.92;111097;1206;139586;-59
2023/03/28 10:51:56;;;;;;;4.20;1.70;;;;;;;0.50;71.36;101067.20;111056;1206;112044;-59
2023/03/28 10:54:40;;;;;;;2.00;1.20;;;;;;;0.46;71.79;101065.24;110750;1206;97713;-59
2023/03/28 10:57:17;;;;;;;4.90;1.70;;;;;;;0.54;71.77;101057.90;110736;1206;141356;-60
2023/03/28 11:00:05;;;;;;;6.10;1.70;;;;;;;0.71;71.75;101055.14;110938;1211;97769;-61
2023/03/28 11:02:42;;;;;;;2.40;1.10;;;;;;;0.92;71.41;101059.08;110751;1211;140295;-62
2023/03/28 11:05:27;;;;;;;4.30;1.40;;;;;;;1.02;69.86;101059.09;110921;1211;110545;-62
2023/03/28 11:08:38;;;;;;;2.70;1.20;;;;;;;1.22;69.10;101069.17;110846;1206;139592;-61
2023/03/28 11:11:29;;;;;;;2.30;1.40;;;;;;;1.45;68.64;101062.85;110663;1205;108607;-62
2023/03/28 11:14:23;;;;;;;3.10;1.50;;;;;;;1.49;67.92;101069.20;110776;1205;138162;-59
2023/03/28 11:16:59;;;;;;;4.30;1.40;;;;;;;1.52;68.18;101066.38;110895;1209;97702;-60
2023/03/28 11:19:55;;;;;;;2.20;1.20;;;;;;;1.61;67.48;101069.37;110642;1212;137393;-59
2023/03/28 11:22:38;;;;;;;5.70;1.70;;;;;;;1.53;66.78;101078.52;110933;1206;99871;-59
2023/03/28 11:25:20;;;;;;;4.60;1.10;;;;;;;1.42;65.73;101090.66;110768;1205;139852;-62
2023/03/28 11:28:18;;;;;;;2.10;1.20;;;;;;;1.24;65.09;101101.91;110849;1211;97686;-60
2023/03/28 11:30:47;;;;;;;4.40;1.10;;;;;;;0.95;65.64;101112.04;110717;1215;98485;-60